Time;durP1;ratioP1;P1;durP2;ratioP2;P2;SDS_P1;SDS_P2;PMS_P1;PMS_P2;Temp;Humidity;BMP_temperature;BMP_pressure;BME280_temperature;BME280_humidity;BME280_pressure;Samples;Min_cycle;Max_cycle;Signal;HPM_P1;HPM_P2
2022/12/13 00:01:30;;;;;;;21.27;9.53;;;0.00;99.90;;;;;;5036648;28;20465;-68
2022/12/13 00:03:57;;;;;;;21.03;9.90;;;0.10;99.90;;;;;;5016528;28;20448;-68
2022/12/13 00:06:24;;;;;;;21.93;11.77;;;0.00;99.90;;;;;;5012270;28;20459;-68
2022/12/13 00:08:50;;;;;;;27.70;11.27;;;0.00;99.90;;;;;;5015417;28;20462;-67
2022/12/13 00:11:15;;;;;;;21.13;10.67;;;0.00;99.90;;;;;;5026908;28;20463;-67
2022/12/13 00:13:42;;;;;;;19.47;10.63;;;0.00;99.90;;;;;;5046692;28;20231;-67
2022/12/13 00:16:13;;;;;;;22.37;9.80;;;0.00;99.90;;;;;;5042629;28;20215;-69
2022/12/13 00:18:39;;;;;;;19.17;8.30;;;0.00;99.90;;;;;;5040607;28;21029;-68
2022/12/13 00:21:07;;;;;;;21.53;10.40;;;-0.10;99.90;;;;;;5030166;28;20491;-69
2022/12/13 00:23:33;;;;;;;21.80;9.37;;;-0.10;99.90;;;;;;5007253;28;20303;-67
2022/12/13 00:26:07;;;;;;;19.57;9.27;;;-0.10;99.90;;;;;;5026641;28;20476;-68
2022/12/13 00:28:33;;;;;;;19.27;9.60;;;-0.10;99.90;;;;;;5011738;28;20448;-68
2022/12/13 00:30:59;;;;;;;21.27;9.40;;;-0.10;99.90;;;;;;5002875;28;20817;-67
2022/12/13 00:33:26;;;;;;;20.03;9.53;;;-0.10;99.90;;;;;;5035383;28;20235;-69
2022/12/13 00:35:52;;;;;;;17.17;9.33;;;-0.20;99.90;;;;;;5008882;28;20464;-67
2022/12/13 00:38:18;;;;;;;17.13;10.20;;;-0.20;99.90;;;;;;5010011;28;21069;-67
2022/12/13 00:40:43;;;;;;;18.60;9.80;;;-0.20;99.90;;;;;;5033245;28;20451;-67
2022/12/13 00:43:09;;;;;;;25.10;12.53;;;-0.20;99.90;;;;;;5033502;28;20221;-66
2022/12/13 00:45:35;;;;;;;21.87;8.90;;;-0.20;99.90;;;;;;5014876;28;20232;-67
2022/12/13 00:48:00;;;;;;;20.60;9.40;;;-0.20;99.90;;;;;;5017359;28;20215;-68
2022/12/13 00:50:26;;;;;;;30.07;12.40;;;-0.20;99.90;;;;;;5035365;28;20212;-67
2022/12/13 00:52:52;;;;;;;20.23;9.10;;;-0.30;99.90;;;;;;5028518;28;20774;-67
2022/12/13 00:55:20;;;;;;;27.83;10.87;;;-0.30;99.90;;;;;;5029962;28;20212;-67
2022/12/13 00:57:46;;;;;;;23.53;10.10;;;-0.40;99.90;;;;;;5007362;28;20224;-67
2022/12/13 01:00:11;;;;;;;18.77;9.50;;;-0.40;99.90;;;;;;5041486;28;20467;-67
2022/12/13 01:02:37;;;;;;;18.70;8.83;;;-0.40;99.90;;;;;;5029415;28;20220;-68
2022/12/13 01:05:03;;;;;;;14.33;8.30;;;-0.40;99.90;;;;;;5010971;28;20259;-68
2022/12/13 01:07:29;;;;;;;20.60;9.27;;;-0.40;99.90;;;;;;5029831;28;20479;-69
2022/12/13 01:09:57;;;;;;;19.13;10.27;;;-0.50;99.90;;;;;;5010755;28;20547;-67
2022/12/13 01:12:22;;;;;;;25.33;8.50;;;-0.50;99.90;;;;;;5008459;28;20213;-68
2022/12/13 01:14:48;;;;;;;17.83;9.87;;;-0.50;99.90;;;;;;5020049;28;20446;-68
2022/12/13 01:17:14;;;;;;;22.30;11.00;;;-0.50;99.90;;;;;;5021231;28;20237;-68
2022/12/13 01:19:40;;;;;;;21.50;9.67;;;-0.40;99.90;;;;;;5026263;28;20235;-69
2022/12/13 01:22:06;;;;;;;21.77;8.90;;;-0.50;99.90;;;;;;5018217;28;20224;-68
2022/12/13 01:24:33;;;;;;;20.53;11.20;;;-0.50;99.90;;;;;;5034092;28;20224;-69
2022/12/13 01:26:59;;;;;;;20.70;11.10;;;-0.60;99.90;;;;;;5028911;28;20452;-68
2022/12/13 01:29:26;;;;;;;23.67;9.77;;;-0.60;99.90;;;;;;5023290;28;20448;-68
2022/12/13 01:31:52;;;;;;;19.97;10.73;;;-0.70;99.90;;;;;;5025204;28;20463;-69
2022/12/13 01:34:20;;;;;;;25.03;10.77;;;-0.70;99.90;;;;;;4997102;28;20455;-68
2022/12/13 01:36:46;;;;;;;21.80;11.00;;;-0.70;99.90;;;;;;5011587;28;20610;-68
2022/12/13 01:39:15;;;;;;;20.80;9.43;;;-0.60;99.90;;;;;;5028918;28;20468;-68
2022/12/13 01:41:45;;;;;;;19.07;9.03;;;-0.60;99.90;;;;;;5032300;28;20461;-68
2022/12/13 01:44:48;;;;;;;27.53;9.13;;;-0.60;99.90;;;;;;5030608;28;20462;-68
2022/12/13 01:47:19;;;;;;;17.63;8.43;;;-0.60;99.90;;;;;;5040203;28;20446;-68
2022/12/13 01:49:45;;;;;;;26.23;9.17;;;-0.60;99.90;;;;;;5011959;28;20456;-68
2022/12/13 01:52:14;;;;;;;20.60;8.63;;;-0.60;99.90;;;;;;5021267;28;20451;-68
2022/12/13 01:54:46;;;;;;;15.93;9.80;;;-0.60;99.90;;;;;;5006910;28;20468;-67
2022/12/13 01:57:15;;;;;;;16.40;8.50;;;-0.60;99.90;;;;;;5038486;28;21004;-68
2022/12/13 01:59:42;;;;;;;18.70;8.27;;;-0.60;99.90;;;;;;5035231;28;20459;-67
2022/12/13 02:02:10;;;;;;;21.37;9.03;;;-0.60;99.90;;;;;;5037170;28;20491;-68
2022/12/13 02:04:57;;;;;;;24.60;11.07;;;-0.60;99.90;;;;;;5026398;28;20509;-67
2022/12/13 02:07:34;;;;;;;14.10;7.57;;;-0.60;99.90;;;;;;5033056;28;20508;-67
2022/12/13 02:10:03;;;;;;;18.30;7.57;;;-0.60;99.90;;;;;;5022300;28;20639;-68
2022/12/13 02:12:31;;;;;;;17.60;9.10;;;-0.70;99.90;;;;;;5030180;28;20448;-68
2022/12/13 02:14:59;;;;;;;21.43;7.80;;;-0.70;99.90;;;;;;5012850;28;20447;-68
2022/12/13 02:17:54;;;;;;;21.90;8.47;;;-0.70;99.90;;;;;;5010976;28;20467;-68
2022/12/13 02:20:45;;;;;;;17.27;9.37;;;-0.70;99.90;;;;;;5028797;28;20542;-68
2022/12/13 02:23:33;;;;;;;18.50;8.57;;;-0.80;99.90;;;;;;5007732;28;20530;-67
2022/12/13 02:26:36;;;;;;;19.33;7.87;;;-0.80;99.90;;;;;;5032091;28;20538;-67
2022/12/13 02:29:32;;;;;;;19.13;8.63;;;-0.90;99.90;;;;;;5011166;28;20537;-67
2022/12/13 02:32:20;;;;;;;18.53;7.90;;;-1.10;99.90;;;;;;5028060;28;20534;-67
2022/12/13 02:34:55;;;;;;;19.10;7.10;;;-1.10;99.90;;;;;;5021656;28;20470;-68
2022/12/13 02:37:54;;;;;;;16.63;7.60;;;-1.00;99.90;;;;;;5028222;28;20470;-68
2022/12/13 02:40:26;;;;;;;17.23;8.20;;;-0.90;99.90;;;;;;5027387;28;20454;-68
2022/12/13 02:43:01;;;;;;;17.40;8.40;;;-0.90;99.90;;;;;;5034022;28;20449;-68
2022/12/13 02:45:48;;;;;;;19.10;9.40;;;-0.90;99.90;;;;;;5009856;28;20458;-68
2022/12/13 02:48:18;;;;;;;17.73;8.27;;;-0.90;99.90;;;;;;5012947;28;20995;-68
2022/12/13 02:50:45;;;;;;;15.70;8.30;;;-0.90;99.90;;;;;;5023334;28;20499;-68
2022/12/13 02:53:12;;;;;;;17.60;9.37;;;-0.90;99.90;;;;;;5012252;28;20479;-68
2022/12/13 02:55:39;;;;;;;17.90;8.60;;;-0.90;99.90;;;;;;5014917;28;21025;-69
2022/12/13 02:58:05;;;;;;;22.53;9.97;;;-0.90;99.90;;;;;;5015523;28;20472;-68
2022/12/13 03:00:54;;;;;;;14.83;7.37;;;-0.90;99.90;;;;;;5035493;28;20499;-68
2022/12/13 03:03:23;;;;;;;20.73;8.90;;;-0.80;99.90;;;;;;4993483;28;20475;-68
2022/12/13 03:06:31;;;;;;;17.77;6.93;;;-0.90;99.90;;;;;;5032748;28;20465;-68
2022/12/13 03:09:06;;;;;;;26.83;8.30;;;-0.90;99.90;;;;;;5008335;28;20531;-68
2022/12/13 03:14:32;;;;;;;16.63;7.80;;;-1.10;99.90;;;;;;5022857;28;20466;-68
2022/12/13 03:17:01;;;;;;;23.07;8.77;;;-1.10;99.90;;;;;;5027119;28;20445;-68
2022/12/13 03:19:26;;;;;;;17.20;8.17;;;-1.00;99.90;;;;;;5026278;28;20487;-68
2022/12/13 03:21:52;;;;;;;19.73;9.17;;;-1.00;99.90;;;;;;5015930;28;20458;-68
2022/12/13 03:24:20;;;;;;;20.07;8.87;;;-1.00;99.90;;;;;;5023173;28;20216;-68
2022/12/13 03:26:48;;;;;;;18.37;7.27;;;-1.10;99.90;;;;;;5038835;28;20310;-68
2022/12/13 03:29:13;;;;;;;21.40;8.73;;;-1.10;99.90;;;;;;5006164;28;20479;-68
2022/12/13 03:31:39;;;;;;;19.27;8.03;;;-1.10;99.90;;;;;;5017725;28;20476;-68
2022/12/13 03:34:05;;;;;;;17.57;8.83;;;-1.00;99.90;;;;;;5000068;28;20308;-68
2022/12/13 03:36:31;;;;;;;19.70;9.00;;;-1.10;99.90;;;;;;5032532;28;20228;-68
2022/12/13 03:38:57;;;;;;;17.27;8.97;;;-1.10;99.90;;;;;;5010952;28;20220;-69
2022/12/13 03:41:31;;;;;;;17.10;7.80;;;-1.10;99.90;;;;;;5011820;28;21001;-69
2022/12/13 03:44:03;;;;;;;13.10;7.00;;;-1.10;99.90;;;;;;5028696;28;20262;-68
2022/12/13 03:46:29;;;;;;;20.10;8.60;;;-1.20;99.90;;;;;;5028083;28;20931;-68
2022/12/13 03:48:55;;;;;;;13.93;6.57;;;-1.10;99.90;;;;;;5025995;28;20458;-68
2022/12/13 03:51:20;;;;;;;18.13;8.03;;;-1.10;99.90;;;;;;4990822;28;20248;-68
2022/12/13 03:53:46;;;;;;;23.70;9.17;;;-1.10;99.90;;;;;;5020483;28;20233;-68
2022/12/13 03:56:12;;;;;;;21.70;7.60;;;-1.10;99.90;;;;;;5030928;28;20249;-68
2022/12/13 03:58:40;;;;;;;12.93;8.10;;;-1.10;99.90;;;;;;5042204;28;20239;-68
2022/12/13 04:01:08;;;;;;;20.20;7.97;;;-1.10;99.90;;;;;;5030747;28;20311;-68
2022/12/13 04:03:36;;;;;;;18.33;6.97;;;-1.10;99.90;;;;;;5029787;28;20448;-68
2022/12/13 04:06:03;;;;;;;14.70;7.47;;;-1.10;99.90;;;;;;5028537;28;20467;-68
2022/12/13 04:08:28;;;;;;;18.10;8.30;;;-1.10;99.90;;;;;;5026492;28;20451;-68
2022/12/13 04:10:54;;;;;;;16.37;8.07;;;-1.10;99.90;;;;;;5028534;28;20455;-68
2022/12/13 04:13:32;;;;;;;19.57;9.47;;;-1.10;99.90;;;;;;5030415;28;20228;-68
2022/12/13 04:15:57;;;;;;;14.47;8.10;;;-1.20;99.90;;;;;;5027443;28;20214;-68
2022/12/13 04:18:23;;;;;;;17.43;8.03;;;-1.30;99.90;;;;;;5025379;28;20473;-67
2022/12/13 04:20:49;;;;;;;19.17;8.70;;;-1.30;99.90;;;;;;5026477;28;20262;-68
2022/12/13 04:23:15;;;;;;;19.73;8.47;;;-1.30;99.90;;;;;;5021035;28;20216;-66
2022/12/13 04:25:41;;;;;;;23.57;10.07;;;-1.20;99.90;;;;;;5008336;28;20241;-68
2022/12/13 04:28:07;;;;;;;13.00;7.00;;;-1.20;99.90;;;;;;5028231;28;20235;-67
2022/12/13 04:30:33;;;;;;;15.97;7.70;;;-1.20;99.90;;;;;;5007150;28;20456;-67
2022/12/13 04:32:59;;;;;;;22.33;7.87;;;-1.30;99.90;;;;;;5023307;28;20467;-67
2022/12/13 04:35:25;;;;;;;16.00;7.43;;;-1.20;99.90;;;;;;5032163;28;20462;-67
2022/12/13 04:37:51;;;;;;;16.90;8.77;;;-1.30;99.90;;;;;;5014156;28;20467;-67
2022/12/13 04:40:17;;;;;;;17.33;8.50;;;-1.30;99.90;;;;;;5030846;28;20228;-67
2022/12/13 04:42:43;;;;;;;22.60;8.87;;;-1.30;99.90;;;;;;5030719;28;20447;-67
2022/12/13 04:45:14;;;;;;;15.97;7.80;;;-1.30;99.90;;;;;;5014026;28;20235;-68
2022/12/13 04:47:40;;;;;;;20.07;8.73;;;-1.30;99.90;;;;;;5029099;28;20247;-67
2022/12/13 04:50:07;;;;;;;18.17;7.13;;;-1.30;99.90;;;;;;5021364;28;20473;-68
2022/12/13 04:52:33;;;;;;;17.27;8.80;;;-1.30;99.90;;;;;;5028436;28;20463;-68
2022/12/13 04:54:58;;;;;;;18.20;8.47;;;-1.30;99.90;;;;;;5029832;28;20472;-68
2022/12/13 04:57:24;;;;;;;14.97;7.60;;;-1.30;99.90;;;;;;5035783;28;20205;-67
2022/12/13 04:59:50;;;;;;;25.73;9.00;;;-1.30;99.90;;;;;;5011469;28;20263;-67
2022/12/13 05:02:16;;;;;;;18.80;8.37;;;-1.30;99.90;;;;;;5039223;28;20534;-68
2022/12/13 05:04:43;;;;;;;16.53;9.40;;;-1.40;99.90;;;;;;5030040;28;20232;-68
2022/12/13 05:07:09;;;;;;;16.90;7.90;;;-1.50;99.90;;;;;;5031717;28;20217;-68
2022/12/13 05:09:35;;;;;;;20.87;10.17;;;-1.40;99.90;;;;;;5017746;28;21018;-67
2022/12/13 05:12:00;;;;;;;11.97;6.70;;;-1.40;99.90;;;;;;5031316;28;20209;-69
2022/12/13 05:14:26;;;;;;;24.03;9.60;;;-1.80;99.90;;;;;;5033269;28;20205;-68
2022/12/13 05:16:52;;;;;;;10.97;6.80;;;-1.80;99.90;;;;;;5029420;28;20252;-68
2022/12/13 05:19:17;;;;;;;19.70;7.23;;;-1.70;99.90;;;;;;5011524;28;20236;-68
2022/12/13 05:21:43;;;;;;;18.70;7.67;;;-1.70;99.90;;;;;;5042878;28;20219;-68
2022/12/13 05:24:09;;;;;;;15.90;8.00;;;-1.70;99.90;;;;;;5031321;28;20220;-67
2022/12/13 05:26:35;;;;;;;18.73;8.30;;;-1.90;99.90;;;;;;5046097;28;20250;-68
2022/12/13 05:29:00;;;;;;;15.90;7.43;;;-1.80;99.90;;;;;;5030705;28;20221;-68
2022/12/13 05:31:26;;;;;;;22.57;7.53;;;-1.70;99.90;;;;;;5024213;28;20298;-68
2022/12/13 05:33:53;;;;;;;15.80;7.17;;;-1.60;99.90;;;;;;5013784;28;20232;-68
2022/12/13 05:36:21;;;;;;;12.67;7.67;;;-1.70;99.90;;;;;;5039777;28;20310;-68
2022/12/13 05:38:46;;;;;;;17.23;8.00;;;-1.70;99.90;;;;;;5049037;28;20482;-68
2022/12/13 05:41:16;;;;;;;13.17;7.83;;;-1.80;99.90;;;;;;5033331;28;20457;-68
2022/12/13 05:43:41;;;;;;;20.47;8.80;;;-1.80;99.90;;;;;;5046955;28;20224;-67
2022/12/13 05:46:07;;;;;;;21.47;7.43;;;-1.70;99.90;;;;;;5046666;28;20463;-67
2022/12/13 05:48:33;;;;;;;12.50;6.60;;;-1.70;99.90;;;;;;5009392;28;20229;-67
2022/12/13 05:50:58;;;;;;;19.37;8.20;;;-1.60;99.90;;;;;;5040398;28;20216;-68
2022/12/13 05:53:24;;;;;;;26.10;9.20;;;-1.70;99.90;;;;;;5013376;28;20243;-68
2022/12/13 05:55:49;;;;;;;12.30;5.83;;;-1.60;99.90;;;;;;5007760;28;20245;-68
2022/12/13 05:58:16;;;;;;;18.47;9.30;;;-1.60;99.90;;;;;;5033934;28;20220;-68
2022/12/13 06:00:42;;;;;;;20.13;7.57;;;-1.60;99.90;;;;;;5036199;28;20248;-67
2022/12/13 06:03:08;;;;;;;16.03;7.50;;;-1.70;99.90;;;;;;5013101;28;20530;-67
2022/12/13 06:05:33;;;;;;;11.10;6.30;;;-1.90;99.90;;;;;;5030077;28;20535;-68
2022/12/13 06:08:00;;;;;;;14.30;7.40;;;-2.00;99.90;;;;;;5013205;28;20212;-68
2022/12/13 06:10:26;;;;;;;16.17;7.90;;;-2.00;99.90;;;;;;5022992;28;20270;-67
2022/12/13 06:12:52;;;;;;;15.07;8.07;;;-1.90;99.90;;;;;;5031313;28;20458;-68
2022/12/13 06:15:18;;;;;;;10.70;5.93;;;-1.90;99.90;;;;;;5012936;28;20535;-68
2022/12/13 06:17:43;;;;;;;14.97;7.33;;;-2.00;99.90;;;;;;5012296;28;20220;-68
2022/12/13 06:20:10;;;;;;;14.03;6.07;;;-1.90;99.90;;;;;;5030307;28;20299;-67
2022/12/13 06:22:35;;;;;;;17.70;8.63;;;-1.90;99.90;;;;;;5025558;28;20221;-68
2022/12/13 06:25:01;;;;;;;19.90;7.80;;;-1.80;99.90;;;;;;5043707;28;20523;-67
2022/12/13 06:27:27;;;;;;;17.93;8.17;;;-1.80;99.90;;;;;;5031619;28;20300;-68
2022/12/13 06:29:52;;;;;;;15.77;7.03;;;-1.80;99.90;;;;;;5020178;28;20216;-67
2022/12/13 06:32:18;;;;;;;25.47;7.50;;;-1.80;99.90;;;;;;5024866;28;20593;-67
2022/12/13 06:34:44;;;;;;;23.40;9.40;;;-1.80;99.90;;;;;;5043259;28;20219;-68
2022/12/13 06:37:13;;;;;;;19.10;8.23;;;-1.80;99.90;;;;;;5048766;28;20227;-68
2022/12/13 06:39:39;;;;;;;16.43;5.97;;;-1.70;99.90;;;;;;5032294;28;20236;-69
2022/12/13 06:42:06;;;;;;;17.50;6.43;;;-1.70;99.90;;;;;;5011292;28;20536;-67
2022/12/13 06:44:33;;;;;;;20.60;7.77;;;-1.90;99.90;;;;;;5024971;28;20554;-68
2022/12/13 06:47:00;;;;;;;15.80;7.10;;;-1.90;99.90;;;;;;5012930;28;20975;-67
2022/12/13 06:49:26;;;;;;;10.73;6.17;;;-1.90;99.90;;;;;;5026867;28;20540;-68
2022/12/13 06:51:52;;;;;;;13.87;6.43;;;-1.80;99.90;;;;;;5011690;28;20463;-68
2022/12/13 06:54:18;;;;;;;14.73;8.40;;;-1.80;99.90;;;;;;5028916;28;20558;-69
2022/12/13 06:56:44;;;;;;;18.33;7.63;;;-1.90;99.90;;;;;;5041812;28;20500;-68
2022/12/13 06:59:11;;;;;;;16.47;8.33;;;-1.90;99.90;;;;;;5032418;28;20891;-69
2022/12/13 07:01:36;;;;;;;15.40;6.93;;;-1.90;99.90;;;;;;5017015;28;20230;-68
2022/12/13 07:04:02;;;;;;;18.00;7.67;;;-1.90;99.90;;;;;;5027725;28;20527;-66
2022/12/13 07:06:28;;;;;;;14.70;7.70;;;-1.90;99.90;;;;;;5001543;28;20670;-69
2022/12/13 07:08:56;;;;;;;18.00;8.20;;;-1.90;99.90;;;;;;5016583;28;20225;-68
2022/12/13 07:11:25;;;;;;;16.50;7.07;;;-2.00;99.90;;;;;;5029133;28;20470;-67
2022/12/13 07:13:51;;;;;;;23.07;7.90;;;-2.00;99.90;;;;;;5037717;28;20854;-68
2022/12/13 07:16:17;;;;;;;15.63;8.20;;;-2.30;99.90;;;;;;5026404;28;20475;-68
2022/12/13 07:18:43;;;;;;;12.20;6.73;;;-2.20;99.90;;;;;;5021876;28;20468;-68
2022/12/13 07:21:11;;;;;;;18.20;8.87;;;-2.20;99.90;;;;;;5017185;28;20247;-68
2022/12/13 07:23:38;;;;;;;17.93;8.67;;;-2.10;99.90;;;;;;5031515;28;20225;-68
2022/12/13 07:26:04;;;;;;;27.77;8.80;;;-2.50;99.90;;;;;;5026037;28;20481;-68
2022/12/13 07:28:35;;;;;;;15.20;7.00;;;-2.40;99.90;;;;;;5030164;28;20454;-70
2022/12/13 07:31:02;;;;;;;19.00;7.60;;;-2.30;99.90;;;;;;5023380;28;20521;-69
2022/12/13 07:33:28;;;;;;;18.13;8.80;;;-2.40;99.90;;;;;;5022386;28;20539;-68
2022/12/13 07:36:06;;;;;;;11.90;7.20;;;-2.40;99.90;;;;;;5026959;28;20501;-68
2022/12/13 07:38:36;;;;;;;15.47;7.30;;;-2.40;99.90;;;;;;5026469;28;20558;-68
2022/12/13 07:41:02;;;;;;;18.70;8.77;;;-2.30;99.90;;;;;;5020335;28;20517;-67
2022/12/13 07:43:28;;;;;;;14.93;6.57;;;-2.30;99.90;;;;;;5013280;28;20466;-68
2022/12/13 07:45:58;;;;;;;18.87;7.87;;;-2.20;99.90;;;;;;5021249;28;20521;-68
2022/12/13 07:48:25;;;;;;;17.57;7.80;;;-2.20;99.90;;;;;;5039562;28;20488;-68
2022/12/13 07:50:51;;;;;;;15.67;8.00;;;-2.30;99.90;;;;;;5026026;28;20502;-68
2022/12/13 07:53:17;;;;;;;18.37;9.50;;;-2.20;99.90;;;;;;5003659;28;20467;-66
2022/12/13 07:55:42;;;;;;;22.17;8.23;;;-2.20;99.90;;;;;;5016817;28;20455;-68
2022/12/13 07:58:13;;;;;;;16.27;7.40;;;-2.20;99.90;;;;;;5021008;28;20239;-67
2022/12/13 08:00:42;;;;;;;21.40;9.43;;;-2.20;99.90;;;;;;5025522;28;20240;-67
2022/12/13 08:03:08;;;;;;;16.67;8.50;;;-2.20;99.90;;;;;;5016557;28;20451;-69
2022/12/13 08:05:35;;;;;;;17.07;8.10;;;-2.30;99.90;;;;;;5026192;28;20450;-68
2022/12/13 08:08:02;;;;;;;15.07;6.37;;;-2.30;99.90;;;;;;5030269;28;20252;-68
2022/12/13 08:10:28;;;;;;;15.47;8.10;;;-2.20;99.90;;;;;;5029610;28;21972;-68
2022/12/13 08:12:54;;;;;;;10.80;6.60;;;-2.20;99.90;;;;;;5023434;28;20466;-68
2022/12/13 08:15:20;;;;;;;19.03;8.50;;;-2.20;99.90;;;;;;5009443;28;20459;-68
2022/12/13 08:17:46;;;;;;;15.00;7.93;;;-2.10;99.90;;;;;;5029898;28;20233;-68
2022/12/13 08:20:12;;;;;;;14.93;7.97;;;-2.10;99.90;;;;;;5028453;28;20466;-67
2022/12/13 08:22:38;;;;;;;16.53;8.30;;;-2.10;99.90;;;;;;5025366;28;20495;-68
2022/12/13 08:25:05;;;;;;;19.77;8.50;;;-2.10;99.90;;;;;;5023384;28;20852;-67
2022/12/13 08:27:31;;;;;;;15.87;7.00;;;-2.10;99.90;;;;;;5013633;28;20458;-68
2022/12/13 08:29:57;;;;;;;16.90;8.20;;;-2.10;99.90;;;;;;5025827;28;20455;-69
2022/12/13 08:32:23;;;;;;;16.53;7.80;;;-2.10;99.90;;;;;;5032044;28;20295;-68
2022/12/13 08:34:48;;;;;;;14.53;7.53;;;-2.10;99.90;;;;;;5027573;28;20216;-69
2022/12/13 08:37:14;;;;;;;14.93;8.80;;;-2.10;99.90;;;;;;5012378;28;20233;-68
2022/12/13 08:39:40;;;;;;;20.77;6.83;;;-2.10;99.90;;;;;;5030600;28;20232;-69
2022/12/13 08:42:09;;;;;;;18.70;7.40;;;-2.10;99.90;;;;;;5030398;28;20220;-68
2022/12/13 08:44:35;;;;;;;14.83;6.70;;;-2.10;99.90;;;;;;5027258;28;20262;-68
2022/12/13 08:47:00;;;;;;;11.30;6.93;;;-2.10;99.90;;;;;;5028844;28;20462;-68
2022/12/13 08:49:26;;;;;;;11.73;6.37;;;-2.10;99.90;;;;;;5036097;28;20224;-68
2022/12/13 08:51:52;;;;;;;16.80;7.23;;;-2.10;99.90;;;;;;5021389;28;20311;-68
2022/12/13 08:54:17;;;;;;;12.40;6.67;;;-2.10;99.90;;;;;;5026743;28;20224;-68
2022/12/13 08:56:43;;;;;;;13.77;6.90;;;-2.10;99.90;;;;;;5025851;28;20234;-68
2022/12/13 08:59:08;;;;;;;21.70;8.37;;;-2.00;99.90;;;;;;5023004;28;20235;-68
2022/12/13 09:01:34;;;;;;;12.73;6.07;;;-2.10;99.90;;;;;;5026220;28;20228;-67
2022/12/13 09:04:00;;;;;;;11.63;6.67;;;-2.10;99.90;;;;;;5031177;28;20256;-68
2022/12/13 09:06:25;;;;;;;11.40;6.33;;;-2.10;99.90;;;;;;5029418;28;20216;-68
2022/12/13 09:08:54;;;;;;;18.13;6.63;;;-2.00;99.90;;;;;;5028756;28;20240;-68
2022/12/13 09:11:20;;;;;;;15.30;7.67;;;-2.00;99.90;;;;;;4996375;28;20221;-68
2022/12/13 09:13:47;;;;;;;16.97;6.70;;;-1.90;99.90;;;;;;5017138;28;20455;-69
2022/12/13 09:16:17;;;;;;;18.50;8.70;;;-1.90;99.90;;;;;;5032708;28;20462;-68
2022/12/13 09:18:43;;;;;;;14.50;6.03;;;-1.90;99.90;;;;;;5028719;28;20486;-68
2022/12/13 09:21:12;;;;;;;27.23;9.23;;;-1.80;99.90;;;;;;5005792;28;20453;-68
2022/12/13 09:23:40;;;;;;;18.20;8.60;;;-1.80;99.90;;;;;;5033224;28;20237;-69
2022/12/13 09:26:06;;;;;;;14.90;7.30;;;-1.90;99.90;;;;;;5029924;28;20525;-66
2022/12/13 09:28:35;;;;;;;17.67;8.30;;;-1.80;99.90;;;;;;5029226;28;20458;-67
2022/12/13 09:31:10;;;;;;;25.67;11.13;;;-1.80;99.90;;;;;;5032115;28;20467;-69
2022/12/13 09:33:36;;;;;;;26.00;10.63;;;-1.70;99.90;;;;;;5019764;28;20884;-68
2022/12/13 09:36:06;;;;;;;23.40;11.00;;;-1.70;99.90;;;;;;5030243;28;20459;-68
2022/12/13 09:38:33;;;;;;;30.87;11.40;;;-1.70;99.90;;;;;;5013445;28;20475;-68
2022/12/13 09:41:04;;;;;;;20.40;9.93;;;-1.80;99.90;;;;;;5027397;28;20452;-68
2022/12/13 09:43:32;;;;;;;20.97;10.37;;;-1.80;99.90;;;;;;5019881;28;20514;-68
2022/12/13 09:46:02;;;;;;;14.23;7.53;;;-1.70;99.90;;;;;;5030288;28;20974;-68
2022/12/13 09:48:28;;;;;;;13.57;7.63;;;-1.70;99.90;;;;;;5023500;28;20447;-68
2022/12/13 09:50:54;;;;;;;16.90;7.57;;;-1.70;99.90;;;;;;5028181;28;20486;-67
2022/12/13 09:53:20;;;;;;;13.87;6.20;;;-1.70;99.90;;;;;;5023645;28;20270;-68
2022/12/13 09:55:48;;;;;;;13.63;6.63;;;-1.70;99.90;;;;;;5024537;28;20747;-68
2022/12/13 09:58:17;;;;;;;17.10;7.30;;;-1.60;99.90;;;;;;5026318;28;20221;-68
2022/12/13 10:00:46;;;;;;;10.30;5.93;;;-1.60;99.90;;;;;;5009953;28;20523;-68
2022/12/13 10:03:14;;;;;;;21.53;8.77;;;-1.60;99.90;;;;;;5021846;28;20473;-67
2022/12/13 10:05:44;;;;;;;17.47;7.17;;;-1.60;99.90;;;;;;5018316;28;20456;-68
2022/12/13 10:08:16;;;;;;;12.27;6.77;;;-1.50;99.90;;;;;;4998955;28;20547;-67
2022/12/13 10:10:43;;;;;;;23.37;8.40;;;-1.60;99.90;;;;;;5001737;28;20810;-68
2022/12/13 10:13:14;;;;;;;16.20;7.47;;;-1.50;99.90;;;;;;4988612;28;20868;-67
2022/12/13 10:15:45;;;;;;;24.47;9.20;;;-1.50;99.90;;;;;;5027369;28;20467;-68
2022/12/13 10:18:18;;;;;;;11.10;6.43;;;-1.50;99.90;;;;;;5026812;28;20479;-66
2022/12/13 10:20:47;;;;;;;15.20;6.17;;;-1.50;99.90;;;;;;5027688;28;20443;-68
2022/12/13 10:23:13;;;;;;;19.47;7.47;;;-1.60;99.90;;;;;;5033599;28;20527;-67
2022/12/13 10:25:56;;;;;;;12.57;6.87;;;-1.60;99.90;;;;;;5028005;28;20530;-68
2022/12/13 10:28:42;;;;;;;16.70;9.20;;;-1.60;99.90;;;;;;5021176;28;20220;-68
2022/12/13 10:31:08;;;;;;;20.80;8.50;;;-1.60;99.90;;;;;;5030606;28;20466;-68
2022/12/13 10:33:37;;;;;;;26.33;12.07;;;-1.50;99.90;;;;;;5028005;28;20538;-67
2022/12/13 10:36:27;;;;;;;30.10;15.60;;;-1.40;99.90;;;;;;5023083;28;20468;-67
2022/12/13 10:38:53;;;;;;;35.97;17.87;;;-1.40;99.90;;;;;;5026322;28;20566;-68
2022/12/13 10:41:28;;;;;;;28.33;18.80;;;-1.40;99.90;;;;;;5029153;28;20558;-68
2022/12/13 10:44:20;;;;;;;31.13;18.43;;;-1.40;99.90;;;;;;5021751;28;20229;-69
2022/12/13 10:47:14;;;;;;;23.47;14.10;;;-1.40;99.90;;;;;;5030005;28;20458;-68
2022/12/13 10:49:46;;;;;;;16.47;9.17;;;-1.40;99.90;;;;;;5007917;28;20452;-67
2022/12/13 10:52:31;;;;;;;14.67;8.10;;;-1.30;99.90;;;;;;5005664;28;20538;-68
2022/12/13 10:55:04;;;;;;;15.87;7.80;;;-1.30;99.90;;;;;;5008502;28;20464;-68
2022/12/13 10:57:30;;;;;;;15.00;7.90;;;-1.40;99.90;;;;;;5008844;28;20460;-68
2022/12/13 10:59:56;;;;;;;14.50;6.40;;;-1.40;99.90;;;;;;5033218;28;20517;-68
2022/12/13 11:02:35;;;;;;;11.70;6.97;;;-1.40;99.90;;;;;;5025278;28;20464;-68
2022/12/13 11:05:22;;;;;;;12.20;6.43;;;-1.40;99.90;;;;;;5037116;28;20470;-67
2022/12/13 11:07:49;;;;;;;12.33;5.90;;;-1.30;99.90;;;;;;5036481;28;20463;-68
2022/12/13 11:10:25;;;;;;;9.50;5.97;;;-1.30;99.90;;;;;;5026392;28;20467;-68
2022/12/13 11:13:17;;;;;;;15.33;8.13;;;-1.30;99.90;;;;;;5040370;28;20512;-68
2022/12/13 11:15:43;;;;;;;15.73;7.50;;;-1.20;99.90;;;;;;5017175;28;20537;-67
2022/12/13 11:18:20;;;;;;;15.10;5.87;;;-1.10;99.90;;;;;;5025696;28;20481;-69
2022/12/13 11:20:59;;;;;;;15.30;7.43;;;-1.10;99.90;;;;;;5019597;28;20460;-68
2022/12/13 11:23:33;;;;;;;11.43;6.90;;;-1.20;99.90;;;;;;5013314;28;20452;-69
2022/12/13 11:26:07;;;;;;;16.63;8.27;;;-1.20;99.90;;;;;;5033365;28;20545;-68
2022/12/13 11:28:59;;;;;;;27.07;12.47;;;-1.10;99.90;;;;;;5023048;28;20959;-68
2022/12/13 11:31:43;;;;;;;30.80;13.87;;;-1.10;99.90;;;;;;5003871;28;20563;-67
2022/12/13 11:34:17;;;;;;;35.77;21.60;;;-1.10;99.90;;;;;;5026592;28;20444;-68
2022/12/13 11:37:07;;;;;;;28.23;18.20;;;-1.00;99.90;;;;;;5013856;28;20448;-69
2022/12/13 11:39:35;;;;;;;23.20;12.23;;;-1.10;99.90;;;;;;5015998;28;20460;-68
2022/12/13 11:42:26;;;;;;;17.67;9.17;;;-1.20;99.90;;;;;;5019894;28;20474;-69
2022/12/13 11:45:01;;;;;;;14.83;6.77;;;-1.20;99.90;;;;;;5022672;28;20475;-67
2022/12/13 11:47:34;;;;;;;14.47;6.90;;;-1.10;99.90;;;;;;5030625;28;21014;-68
2022/12/13 11:50:03;;;;;;;11.90;7.60;;;-1.10;99.90;;;;;;5036875;28;20455;-68
2022/12/13 11:52:41;;;;;;;11.37;5.83;;;-1.10;99.90;;;;;;5014509;28;20458;-68
2022/12/13 11:55:15;;;;;;;9.07;5.87;;;-1.20;99.90;;;;;;5028854;28;20540;-66
2022/12/13 11:58:05;;;;;;;19.23;7.37;;;-1.10;99.90;;;;;;5007549;28;20467;-67
2022/12/13 12:00:35;;;;;;;17.67;8.00;;;-1.10;99.90;;;;;;5036926;28;20472;-69
2022/12/13 12:03:09;;;;;;;25.57;11.20;;;-1.00;99.90;;;;;;5010725;28;20460;-68
2022/12/13 12:05:39;;;;;;;15.20;7.60;;;-1.10;99.90;;;;;;5030151;28;21044;-68
2022/12/13 12:08:15;;;;;;;18.40;8.27;;;-1.10;99.90;;;;;;5040357;28;20462;-68
2022/12/13 12:10:43;;;;;;;27.63;11.90;;;-1.00;99.90;;;;;;5030802;28;20442;-68
2022/12/13 12:13:12;;;;;;;22.20;9.47;;;-1.10;99.90;;;;;;5037110;28;20961;-68
2022/12/13 12:15:48;;;;;;;21.27;8.40;;;-1.10;99.90;;;;;;5035436;28;20457;-68
2022/12/13 12:18:18;;;;;;;18.90;8.43;;;-1.00;99.90;;;;;;4998648;28;20484;-68
2022/12/13 12:21:06;;;;;;;17.80;9.50;;;-0.80;99.90;;;;;;5008522;28;20463;-67
2022/12/13 12:23:42;;;;;;;19.50;8.30;;;-0.90;99.90;;;;;;5023484;28;20458;-66
2022/12/13 12:26:15;;;;;;;16.27;8.67;;;-0.90;99.90;;;;;;5035730;28;20449;-66
2022/12/13 12:29:11;;;;;;;17.70;8.10;;;-1.00;99.90;;;;;;5014772;28;20448;-68
2022/12/13 12:31:46;;;;;;;13.37;8.17;;;-1.10;99.90;;;;;;5028127;28;20455;-69
2022/12/13 12:34:26;;;;;;;21.10;8.60;;;-1.00;99.90;;;;;;5022499;28;20455;-68
2022/12/13 12:37:03;;;;;;;16.10;8.13;;;-1.00;99.90;;;;;;5014075;28;20451;-68
2022/12/13 12:39:56;;;;;;;14.13;7.70;;;-1.00;99.90;;;;;;5005273;28;20460;-69
2022/12/13 12:42:46;;;;;;;15.73;8.47;;;-1.00;99.90;;;;;;5024027;28;20448;-69
2022/12/13 12:45:22;;;;;;;17.53;8.80;;;-0.90;99.90;;;;;;5023291;28;20566;-69
2022/12/13 12:48:15;;;;;;;13.23;6.17;;;-0.90;99.90;;;;;;5024721;28;20559;-67
2022/12/13 12:50:58;;;;;;;12.40;7.20;;;-1.00;99.90;;;;;;5009751;28;20489;-68
2022/12/13 12:53:29;;;;;;;10.03;5.20;;;-1.10;99.90;;;;;;5026631;28;20534;-69